Time;durP1;ratioP1;P1;durP2;ratioP2;P2;SDS_P1;SDS_P2;PMS_P1;PMS_P2;Temp;Humidity;BMP_temperature;BMP_pressure;BME280_temperature;BME280_humidity;BME280_pressure;Samples;Min_cycle;Max_cycle;Signal;HPM_P1;HPM_P2
2022/12/31 00:00:07;;;;;;;;;;;2.70;99.90;;;;;;5116498;28;20275;-71
2022/12/31 00:02:33;;;;;;;;;;;2.70;99.90;;;;;;5116328;28;19999;-71
2022/12/31 00:04:59;;;;;;;;;;;2.70;99.90;;;;;;5098046;28;20027;-71
2022/12/31 00:07:24;;;;;;;;;;;2.70;99.90;;;;;;5116388;28;19911;-71
2022/12/31 00:09:50;;;;;;;;;;;2.70;99.90;;;;;;5098056;28;19922;-71
2022/12/31 00:12:15;;;;;;;;;;;2.70;99.90;;;;;;5116245;28;19951;-70
2022/12/31 00:14:41;;;;;;;;;;;2.70;99.90;;;;;;5116377;28;19911;-70
2022/12/31 00:17:06;;;;;;;;;;;2.70;99.90;;;;;;5116180;28;19957;-71
2022/12/31 00:19:32;;;;;;;;;;;2.80;99.90;;;;;;5116173;28;20379;-71
2022/12/31 00:21:58;;;;;;;;;;;2.80;99.90;;;;;;5097821;28;20282;-71
2022/12/31 00:24:23;;;;;;;;;;;2.80;99.90;;;;;;5116042;28;19912;-71
2022/12/31 00:26:49;;;;;;;;;;;2.80;99.90;;;;;;5115722;28;20375;-71
2022/12/31 00:29:14;;;;;;;;;;;2.80;99.90;;;;;;5115356;28;19923;-71
2022/12/31 00:31:40;;;;;;;;;;;2.80;99.90;;;;;;5115878;28;19912;-71
2022/12/31 00:34:06;;;;;;;;;;;2.80;99.90;;;;;;5115873;28;19957;-70
2022/12/31 00:36:33;;;;;;;;;;;2.80;99.90;;;;;;5115521;28;19915;-71
2022/12/31 00:39:00;;;;;;;;;;;2.80;99.90;;;;;;5097493;28;19907;-71
2022/12/31 00:41:25;;;;;;;;;;;2.90;99.90;;;;;;5115660;28;19908;-71
2022/12/31 00:43:51;;;;;;;;;;;2.90;99.90;;;;;;5115888;28;19994;-71
2022/12/31 00:46:17;;;;;;;;;;;2.90;99.90;;;;;;5115464;28;19908;-71
2022/12/31 00:48:42;;;;;;;;;;;2.90;99.90;;;;;;5115559;28;20397;-71
2022/12/31 00:51:09;;;;;;;;;;;2.90;99.90;;;;;;5097369;28;20264;-71
2022/12/31 00:53:35;;;;;;;;;;;2.90;99.90;;;;;;5115441;28;20006;-71
2022/12/31 00:56:01;;;;;;;;;;;2.90;99.90;;;;;;5115398;28;20365;-71
2022/12/31 00:58:27;;;;;;;;;;;2.90;99.90;;;;;;5115643;28;19931;-71
2022/12/31 01:00:52;;;;;;;;;;;2.90;99.90;;;;;;5115315;28;20363;-70
2022/12/31 01:03:18;;;;;;;;;;;3.00;99.90;;;;;;5115861;28;19912;-71
2022/12/31 01:05:43;;;;;;;;;;;3.00;99.90;;;;;;5115073;28;19943;-70
2022/12/31 01:08:09;;;;;;;;;;;3.00;99.90;;;;;;5096916;28;19912;-71
2022/12/31 01:13:18;;;;;;;;;;;3.00;99.90;;;;;;5115714;28;19918;-71
2022/12/31 01:15:44;;;;;;;;;;;3.00;99.90;;;;;;5114927;28;19919;-71
2022/12/31 01:18:10;;;;;;;;;;;2.90;99.90;;;;;;5115221;28;20443;-71
2022/12/31 01:20:36;;;;;;;;;;;2.90;99.90;;;;;;5097082;28;20244;-71
2022/12/31 01:23:02;;;;;;;;;;;2.90;99.90;;;;;;5115507;28;19912;-71
2022/12/31 01:25:28;;;;;;;;;;;2.90;99.90;;;;;;5115117;28;20443;-70
2022/12/31 01:27:53;;;;;;;;;;;3.00;99.90;;;;;;5096544;28;19911;-71
2022/12/31 01:30:19;;;;;;;;;;;3.00;99.90;;;;;;5114755;28;20436;-71
2022/12/31 01:32:44;;;;;;;;;;;3.00;99.90;;;;;;5115045;28;19922;-71
2022/12/31 01:35:10;;;;;;;;;;;3.00;99.90;;;;;;5114359;28;19920;-71
2022/12/31 01:37:35;;;;;;;;;;;3.00;99.90;;;;;;5106406;22;19951;-73
2022/12/31 01:40:01;;;;;;;;;;;3.00;99.90;;;;;;5089406;28;19999;-73
2022/12/31 01:42:26;;;;;;;;;;;3.00;99.90;;;;;;5074007;28;19995;-73
2022/12/31 01:44:53;;;;;;;;;;;3.00;99.90;;;;;;5073787;28;19913;-73
2022/12/31 01:47:23;;;;;;;;;;;3.00;99.90;;;;;;5086052;28;20331;-73
2022/12/31 01:49:53;;;;;;;;;;;3.00;99.90;;;;;;5093912;28;20392;-73
2022/12/31 01:52:31;;;;;;;;;;;3.00;99.90;;;;;;5093966;28;19912;-73
2022/12/31 01:55:16;;;;;;;;;;;3.00;99.90;;;;;;5094234;28;19923;-73
2022/12/31 01:57:43;;;;;;;;;;;3.00;99.90;;;;;;5093343;28;19908;-73
2022/12/31 02:00:09;;;;;;;;;;;2.90;99.90;;;;;;5093979;28;19912;-73
2022/12/31 02:02:34;;;;;;;;;;;2.90;99.90;;;;;;5093884;28;19919;-73
2022/12/31 02:05:01;;;;;;;;;;;2.90;99.90;;;;;;5093868;28;19919;-73
2022/12/31 02:07:27;;;;;;;;;;;2.90;99.90;;;;;;5093617;28;19912;-73
2022/12/31 02:09:53;;;;;;;;;;;2.90;99.90;;;;;;5093806;28;20299;-73
2022/12/31 02:12:19;;;;;;;;;;;3.00;99.90;;;;;;5093848;28;19913;-74
2022/12/31 02:14:46;;;;;;;;;;;2.90;99.90;;;;;;5093754;28;19908;-74
2022/12/31 02:17:21;;;;;;;;;;;3.00;99.90;;;;;;5093976;28;19915;-73
2022/12/31 02:19:46;;;;;;;;;;;3.00;99.90;;;;;;5093773;28;19908;-74
2022/12/31 02:22:12;;;;;;;;;;;3.00;99.90;;;;;;5093449;28;20394;-74
2022/12/31 02:24:40;;;;;;;;;;;3.00;99.90;;;;;;5093714;28;19951;-74
2022/12/31 02:27:32;;;;;;;;;;;3.00;99.90;;;;;;5093613;28;19998;-74
2022/12/31 02:30:13;;;;;;;;;;;3.00;99.90;;;;;;5090549;28;19973;-74
2022/12/31 02:32:46;;;;;;;;;;;3.00;99.90;;;;;;5093651;28;19908;-73
2022/12/31 02:35:14;;;;;;;;;;;3.00;99.90;;;;;;5075446;28;20282;-74
2022/12/31 02:37:42;;;;;;;;;;;3.00;99.90;;;;;;5093227;28;19974;-74
2022/12/31 02:40:10;;;;;;;;;;;3.10;99.90;;;;;;5093520;28;19908;-74
2022/12/31 02:42:36;;;;;;;;;;;3.10;99.90;;;;;;5093532;28;19908;-74
2022/12/31 02:45:01;;;;;;;;;;;3.00;99.90;;;;;;5093534;28;20337;-74
2022/12/31 02:47:50;;;;;;;;;;;3.00;99.90;;;;;;5093354;28;19919;-74
2022/12/31 02:50:32;;;;;;;;;;;3.00;99.90;;;;;;5087526;28;19908;-74
2022/12/31 02:53:08;;;;;;;;;;;3.00;99.90;;;;;;5097088;28;19908;-74
2022/12/31 02:55:40;;;;;;;;;;;3.00;99.90;;;;;;5079012;28;20431;-74
2022/12/31 02:58:20;;;;;;;;;;;3.10;99.90;;;;;;5097223;28;19908;-74
2022/12/31 03:03:37;;;;;;;;;;;3.00;99.90;;;;;;5097817;28;19915;-74
2022/12/31 03:06:03;;;;;;;;;;;3.00;99.90;;;;;;5097024;28;19908;-74
2022/12/31 03:08:28;;;;;;;;;;;3.00;99.90;;;;;;5084288;28;19954;-74
2022/12/31 03:10:55;;;;;;;;;;;3.00;99.90;;;;;;5059072;28;19916;-74
2022/12/31 03:13:22;;;;;;;;;;;3.00;99.90;;;;;;5076654;28;19916;-73
2022/12/31 03:15:48;;;;;;;;;;;3.00;99.90;;;;;;5076475;28;19912;-74
2022/12/31 03:18:14;;;;;;;;;;;3.00;99.90;;;;;;5084006;28;19912;-74
2022/12/31 03:23:34;;;;;;;;;;;3.00;99.90;;;;;;5096601;28;19914;-74
2022/12/31 03:26:00;;;;;;;;;;;3.10;99.90;;;;;;5096674;28;19990;-74
2022/12/31 03:28:28;;;;;;;;;;;3.10;99.90;;;;;;5078465;28;19952;-74
2022/12/31 03:30:58;;;;;;;;;;;3.10;99.90;;;;;;5096648;28;19908;-74
2022/12/31 03:33:24;;;;;;;;;;;3.10;99.90;;;;;;5096538;28;19908;-73
2022/12/31 03:35:50;;;;;;;;;;;3.10;99.90;;;;;;5096303;28;19920;-75
2022/12/31 03:38:16;;;;;;;;;;;3.10;99.90;;;;;;5096270;28;19967;-74
2022/12/31 03:40:44;;;;;;;;;;;3.10;99.90;;;;;;5096449;28;19908;-73
2022/12/31 03:43:09;;;;;;;;;;;3.10;99.90;;;;;;5096393;28;20426;-73
2022/12/31 03:45:35;;;;;;;;;;;3.10;99.90;;;;;;5095307;28;20011;-74
2022/12/31 03:48:01;;;;;;;;;;;3.10;99.90;;;;;;5096254;28;19912;-74
2022/12/31 03:50:27;;;;;;;;;;;3.10;99.90;;;;;;5094943;28;19909;-74
2022/12/31 03:52:53;;;;;;;;;;;3.10;99.90;;;;;;5096160;28;20510;-74
2022/12/31 03:55:18;;;;;;;;;;;3.10;99.90;;;;;;5096104;28;20044;-73
2022/12/31 03:57:44;;;;;;;;;;;3.10;99.90;;;;;;5095923;28;20281;-74
2022/12/31 04:00:12;;;;;;;;;;;3.10;99.90;;;;;;5096088;28;19912;-74
2022/12/31 04:02:37;;;;;;;;;;;3.10;99.90;;;;;;5095909;28;20283;-74
2022/12/31 04:05:03;;;;;;;;;;;3.10;99.90;;;;;;5095765;28;19912;-74
2022/12/31 04:07:29;;;;;;;;;;;3.10;99.90;;;;;;5077688;28;19916;-73
2022/12/31 04:09:54;;;;;;;;;;;3.10;99.90;;;;;;5096157;28;19912;-74
2022/12/31 04:12:20;;;;;;;;;;;3.10;99.90;;;;;;5096121;28;20314;-73
2022/12/31 04:14:45;;;;;;;;;;;3.10;99.90;;;;;;5095726;28;19915;-73
2022/12/31 04:17:11;;;;;;;;;;;3.10;99.90;;;;;;5095663;28;19959;-73
2022/12/31 04:19:36;;;;;;;;;;;3.10;99.90;;;;;;5096166;28;19966;-74
2022/12/31 04:22:02;;;;;;;;;;;3.10;99.90;;;;;;5095345;28;19954;-74
2022/12/31 04:24:28;;;;;;;;;;;3.10;99.90;;;;;;5095601;28;19947;-73
2022/12/31 04:26:53;;;;;;;;;;;3.10;99.90;;;;;;5095452;28;19912;-73
2022/12/31 04:29:19;;;;;;;;;;;3.10;99.90;;;;;;5095484;28;20256;-73
2022/12/31 04:31:44;;;;;;;;;;;3.10;99.90;;;;;;5095693;28;20003;-73
2022/12/31 04:34:10;;;;;;;;;;;3.10;99.90;;;;;;5095682;28;19919;-73
2022/12/31 04:36:36;;;;;;;;;;;3.10;99.90;;;;;;5094774;28;19927;-73
2022/12/31 04:39:01;;;;;;;;;;;3.10;99.90;;;;;;5095635;28;19969;-73
2022/12/31 04:41:27;;;;;;;;;;;3.10;99.90;;;;;;5095369;28;20276;-73
2022/12/31 04:43:55;;;;;;;;;;;3.10;99.90;;;;;;5095220;28;19908;-73
2022/12/31 04:46:22;;;;;;;;;;;3.00;99.90;;;;;;5095090;28;20352;-74
2022/12/31 04:48:48;;;;;;;;;;;3.10;99.90;;;;;;5095407;28;19908;-74
2022/12/31 04:51:14;;;;;;;;;;;3.00;99.90;;;;;;5094743;28;19908;-74
2022/12/31 04:53:39;;;;;;;;;;;3.00;99.90;;;;;;5095000;28;19978;-74
2022/12/31 04:56:06;;;;;;;;;;;3.00;99.90;;;;;;5095069;28;19958;-74
2022/12/31 04:58:32;;;;;;;;;;;3.00;99.90;;;;;;5094815;28;20359;-74
2022/12/31 05:00:57;;;;;;;;;;;3.00;99.90;;;;;;5094251;28;20012;-73
2022/12/31 05:03:23;;;;;;;;;;;3.00;99.90;;;;;;5094863;28;20330;-73
2022/12/31 05:05:49;;;;;;;;;;;3.00;99.90;;;;;;5094343;28;19912;-73
2022/12/31 05:08:16;;;;;;;;;;;3.00;99.90;;;;;;5081023;28;20328;-74
2022/12/31 05:10:43;;;;;;;;;;;3.00;99.90;;;;;;5074428;28;19916;-74
2022/12/31 05:13:09;;;;;;;;;;;2.90;99.90;;;;;;5074431;28;19915;-73
2022/12/31 05:15:34;;;;;;;;;;;2.90;99.90;;;;;;5073929;28;20378;-74
2022/12/31 05:18:00;;;;;;;;;;;2.90;99.90;;;;;;5056406;28;19912;-74
2022/12/31 05:20:25;;;;;;;;;;;2.90;99.90;;;;;;5086029;28;20370;-73
2022/12/31 05:22:51;;;;;;;;;;;2.90;99.90;;;;;;5094534;28;19912;-73
2022/12/31 05:25:16;;;;;;;;;;;2.90;99.90;;;;;;5076324;28;20472;-74
2022/12/31 05:27:42;;;;;;;;;;;2.90;99.90;;;;;;5076193;28;19908;-73
2022/12/31 05:30:08;;;;;;;;;;;2.90;99.90;;;;;;5094426;28;19908;-73
2022/12/31 05:32:34;;;;;;;;;;;2.90;99.90;;;;;;5094314;28;19912;-74
2022/12/31 05:34:59;;;;;;;;;;;2.90;99.90;;;;;;5093979;28;20389;-73
2022/12/31 05:37:26;;;;;;;;;;;2.90;99.90;;;;;;5094166;28;19916;-74
2022/12/31 05:39:51;;;;;;;;;;;2.90;99.90;;;;;;5094223;28;19908;-73
2022/12/31 05:42:17;;;;;;;;;;;3.00;99.90;;;;;;5094499;28;19912;-73
2022/12/31 05:44:43;;;;;;;;;;;3.00;99.90;;;;;;5094179;28;19908;-74
2022/12/31 05:47:08;;;;;;;;;;;3.10;99.90;;;;;;5092241;28;20272;-74
2022/12/31 05:49:34;;;;;;;;;;;3.10;99.90;;;;;;5093555;28;19948;-73
2022/12/31 05:51:59;;;;;;;;;;;3.10;99.90;;;;;;5093466;28;20261;-74
2022/12/31 05:54:25;;;;;;;;;;;3.10;99.90;;;;;;5093833;28;19909;-74
2022/12/31 05:56:50;;;;;;;;;;;3.10;99.90;;;;;;5093666;28;19927;-74
2022/12/31 05:59:16;;;;;;;;;;;3.10;99.90;;;;;;5093790;28;19912;-74
2022/12/31 06:01:41;;;;;;;;;;;3.10;99.90;;;;;;5093716;28;19979;-74
2022/12/31 06:04:07;;;;;;;;;;;3.10;99.90;;;;;;5093492;28;19919;-74
2022/12/31 06:06:33;;;;;;;;;;;3.20;99.90;;;;;;5091872;28;19919;-73
2022/12/31 06:08:58;;;;;;;;;;;3.20;99.90;;;;;;5093640;28;19915;-73
2022/12/31 06:11:24;;;;;;;;;;;3.10;99.90;;;;;;5088941;28;19973;-74
2022/12/31 06:13:49;;;;;;;;;;;3.10;99.90;;;;;;5093642;28;19912;-73
2022/12/31 06:16:15;;;;;;;;;;;3.10;99.90;;;;;;5093407;28;19920;-74
2022/12/31 06:18:40;;;;;;;;;;;3.00;99.90;;;;;;5092380;28;19979;-73
2022/12/31 06:21:06;;;;;;;;;;;3.00;99.90;;;;;;5093351;28;19931;-73
2022/12/31 06:23:31;;;;;;;;;;;3.00;99.90;;;;;;5093818;28;19919;-73
2022/12/31 06:26:01;;;;;;;;;;;2.90;99.90;;;;;;5093426;28;19931;-73
2022/12/31 06:28:26;;;;;;;;;;;2.90;99.90;;;;;;5097661;28;19912;-73
2022/12/31 06:30:57;;;;;;;;;;;2.80;99.90;;;;;;5095843;28;19935;-73
2022/12/31 06:33:23;;;;;;;;;;;2.80;99.90;;;;;;5097484;28;19915;-73
2022/12/31 06:35:53;;;;;;;;;;;2.80;99.90;;;;;;5096078;28;19920;-74
2022/12/31 06:38:19;;;;;;;;;;;2.80;99.90;;;;;;5097336;28;19939;-73
2022/12/31 06:40:44;;;;;;;;;;;2.80;99.90;;;;;;5096205;28;20345;-73
2022/12/31 06:43:10;;;;;;;;;;;2.80;99.90;;;;;;5097492;28;20264;-74
2022/12/31 06:45:35;;;;;;;;;;;2.80;99.90;;;;;;5079472;28;20098;-74
2022/12/31 06:48:01;;;;;;;;;;;2.90;99.90;;;;;;5097389;28;19908;-74
2022/12/31 06:50:26;;;;;;;;;;;2.90;99.90;;;;;;5097082;28;19908;-74
2022/12/31 06:52:52;;;;;;;;;;;2.80;99.90;;;;;;5079219;28;19912;-74
2022/12/31 06:55:18;;;;;;;;;;;2.90;99.90;;;;;;5097458;28;19912;-74
2022/12/31 06:57:43;;;;;;;;;;;2.90;99.90;;;;;;5097081;28;19999;-73
2022/12/31 07:00:09;;;;;;;;;;;2.90;99.90;;;;;;5097224;28;19916;-74
2022/12/31 07:02:53;;;;;;;;;;;2.90;99.90;;;;;;5097076;28;19931;-75
2022/12/31 07:05:25;;;;;;;;;;;2.90;99.90;;;;;;5096852;28;19999;-75
2022/12/31 07:08:02;;;;;;;;;;;2.80;99.90;;;;;;5096996;28;20348;-75
2022/12/31 07:10:30;;;;;;;;;;;2.90;99.90;;;;;;5097355;28;19998;-75
2022/12/31 07:13:22;;;;;;;;;;;2.80;99.90;;;;;;5078854;28;19908;-75
2022/12/31 07:16:01;;;;;;;;;;;2.80;99.90;;;;;;5096970;28;19912;-75
2022/12/31 07:18:40;;;;;;;;;;;2.80;99.90;;;;;;5096906;28;19908;-76
2022/12/31 07:21:09;;;;;;;;;;;2.80;99.90;;;;;;5096768;28;19912;-76
2022/12/31 07:23:35;;;;;;;;;;;2.80;99.90;;;;;;5097098;28;20263;-76
2022/12/31 07:26:21;;;;;;;;;;;2.80;99.90;;;;;;5079176;28;19919;-76
2022/12/31 07:28:56;;;;;;;;;;;2.80;99.90;;;;;;5096216;28;19908;-76
2022/12/31 07:31:30;;;;;;;;;;;2.80;99.90;;;;;;5097236;28;19915;-75
2022/12/31 07:33:59;;;;;;;;;;;2.80;99.90;;;;;;5096675;28;19916;-76
2022/12/31 07:36:43;;;;;;;;;;;2.80;99.90;;;;;;5096235;28;19908;-76
2022/12/31 07:39:11;;;;;;;;;;;2.80;99.90;;;;;;5095010;28;19955;-76
2022/12/31 07:41:55;;;;;;;;;;;2.80;99.90;;;;;;5094588;28;19912;-76
2022/12/31 07:44:41;;;;;;;;;;;2.80;99.90;;;;;;5078235;28;20417;-75
2022/12/31 07:47:27;;;;;;;;;;;2.80;99.90;;;;;;5091759;28;20348;-74
2022/12/31 07:49:54;;;;;;;;;;;2.90;99.90;;;;;;5095909;28;19970;-75
2022/12/31 07:52:20;;;;;;;;;;;2.90;99.90;;;;;;5096294;28;19955;-75
2022/12/31 07:54:45;;;;;;;;;;;2.90;99.90;;;;;;5096145;28;19908;-75
2022/12/31 07:57:12;;;;;;;;;;;3.00;99.90;;;;;;5096255;28;19973;-75
2022/12/31 07:59:48;;;;;;;;;;;3.00;99.90;;;;;;5096177;28;19908;-74
2022/12/31 08:02:20;;;;;;;;;;;3.00;99.90;;;;;;5096045;28;20280;-73
2022/12/31 08:04:52;;;;;;;;;;;3.00;99.90;;;;;;5096070;28;19908;-74
2022/12/31 08:07:26;;;;;;;;;;;3.10;99.90;;;;;;5078468;28;19943;-74
2022/12/31 08:09:55;;;;;;;;;;;3.10;99.90;;;;;;5095961;28;19990;-74
2022/12/31 08:12:21;;;;;;;;;;;3.10;99.90;;;;;;5095890;28;19908;-74
2022/12/31 08:14:47;;;;;;;;;;;3.10;99.90;;;;;;5096115;28;19912;-74
2022/12/31 08:17:14;;;;;;;;;;;3.10;99.90;;;;;;5095615;28;20007;-73
2022/12/31 08:19:39;;;;;;;;;;;3.20;99.90;;;;;;5095675;28;19960;-74
2022/12/31 08:22:11;;;;;;;;;;;3.20;99.90;;;;;;5095675;28;20364;-74
2022/12/31 08:24:43;;;;;;;;;;;3.20;99.90;;;;;;5095680;28;19939;-74
2022/12/31 08:27:20;;;;;;;;;;;3.30;99.90;;;;;;5096094;28;19914;-74
2022/12/31 08:29:54;;;;;;;;;;;3.30;99.90;;;;;;5095587;28;19908;-74
2022/12/31 08:32:25;;;;;;;;;;;3.40;99.90;;;;;;5095805;28;20292;-74
2022/12/31 08:34:53;;;;;;;;;;;3.40;99.90;;;;;;5094644;28;19999;-74
2022/12/31 08:37:37;;;;;;;;;;;3.50;99.90;;;;;;5095464;28;19990;-74
2022/12/31 08:40:14;;;;;;;;;;;3.60;99.90;;;;;;5077455;28;19966;-74
2022/12/31 08:42:48;;;;;;;;;;;3.60;99.90;;;;;;5077147;28;19934;-74
2022/12/31 08:45:26;;;;;;;;;;;3.60;99.90;;;;;;5095575;28;19915;-73
2022/12/31 08:48:04;;;;;;;;;;;3.60;99.90;;;;;;5095276;28;19963;-74
2022/12/31 08:50:30;;;;;;;;;;;3.70;99.90;;;;;;5094670;28;19950;-74
2022/12/31 08:52:55;;;;;;;;;;;3.80;99.90;;;;;;5094987;28;20292;-74
2022/12/31 08:55:21;;;;;;;;;;;3.80;99.90;;;;;;5076864;28;19959;-74
2022/12/31 08:57:50;;;;;;;;;;;3.90;99.90;;;;;;5094891;28;20019;-74
2022/12/31 09:00:17;;;;;;;;;;;3.90;99.90;;;;;;5094950;28;19909;-74
2022/12/31 09:03:06;;;;;;;;;;;4.00;99.90;;;;;;5095123;28;19908;-74
2022/12/31 09:05:35;;;;;;;;;;;4.00;99.90;;;;;;5081226;28;19912;-74
2022/12/31 09:08:19;;;;;;;;;;;4.10;99.90;;;;;;5094749;28;19959;-73
2022/12/31 09:10:58;;;;;;;;;;;4.10;99.90;;;;;;5094687;28;19924;-74
2022/12/31 09:13:36;;;;;;;;;;;4.10;99.90;;;;;;5076435;28;19934;-75
2022/12/31 09:16:18;;;;;;;;;;;4.20;99.90;;;;;;5093354;28;19912;-75
2022/12/31 09:18:44;;;;;;;;;;;4.20;99.90;;;;;;5094613;28;19912;-74
2022/12/31 09:21:11;;;;;;;;;;;4.20;99.90;;;;;;5094888;28;19916;-75
2022/12/31 09:23:37;;;;;;;;;;;4.20;99.90;;;;;;5076304;28;19915;-74
2022/12/31 09:26:14;;;;;;;;;;;4.20;99.90;;;;;;5094605;28;19908;-75
2022/12/31 09:28:45;;;;;;;;;;;4.30;99.90;;;;;;5094441;28;19909;-74
2022/12/31 09:31:16;;;;;;;;;;;4.30;99.90;;;;;;5094409;28;19908;-74
2022/12/31 09:33:50;;;;;;;;;;;4.40;99.90;;;;;;5094645;28;19915;-74
2022/12/31 09:36:23;;;;;;;;;;;4.40;99.90;;;;;;5094256;28;19923;-75
2022/12/31 09:38:55;;;;;;;;;;;4.40;99.90;;;;;;5076518;28;19908;-75
2022/12/31 09:41:33;;;;;;;;;;;4.40;99.90;;;;;;5076092;28;19915;-74
2022/12/31 09:44:10;;;;;;;;;;;4.30;99.90;;;;;;5071031;28;20375;-74
2022/12/31 09:46:55;;;;;;;;;;;4.30;99.90;;;;;;5073908;28;19909;-74
2022/12/31 09:49:38;;;;;;;;;;;4.30;99.90;;;;;;5074244;28;19917;-74
2022/12/31 09:52:04;;;;;;;;;;;4.30;99.90;;;;;;5076267;28;19970;-75
2022/12/31 09:54:44;;;;;;;;;;;4.40;99.90;;;;;;5094000;28;19995;-74
2022/12/31 09:57:26;;;;;;;;;;;4.40;99.90;;;;;;5094119;28;19923;-75
2022/12/31 09:59:56;;;;;;;;;;;4.50;99.90;;;;;;5093885;28;20264;-75
2022/12/31 10:02:46;;;;;;;;;;;4.50;99.90;;;;;;5094295;28;20389;-74
2022/12/31 10:05:11;;;;;;;;;;;4.60;99.90;;;;;;5075877;28;19957;-74
2022/12/31 10:07:56;;;;;;;;;;;4.60;99.90;;;;;;5093878;28;20324;-74
2022/12/31 10:10:24;;;;;;;;;;;4.60;99.90;;;;;;5094226;28;20044;-74
2022/12/31 10:13:09;;;;;;;;;;;4.70;99.90;;;;;;5093879;28;19999;-75
2022/12/31 10:15:45;;;;;;;;;;;4.70;99.90;;;;;;5093959;28;19920;-74
2022/12/31 10:18:17;;;;;;;;;;;4.70;99.90;;;;;;5094088;28;19908;-74
2022/12/31 10:20:54;;;;;;;;;;;4.80;99.90;;;;;;5093807;28;19930;-74
2022/12/31 10:23:26;;;;;;;;;;;4.80;99.90;;;;;;5093783;28;19912;-74
2022/12/31 10:26:10;;;;;;;;;;;4.90;99.90;;;;;;5093675;28;19908;-74
2022/12/31 10:28:46;;;;;;;;;;;4.90;99.90;;;;;;5094019;28;20352;-74
2022/12/31 10:31:12;;;;;;;;;;;4.90;99.90;;;;;;5093841;28;19999;-74
2022/12/31 10:33:53;;;;;;;;;;;5.00;99.90;;;;;;5093671;28;19939;-74
2022/12/31 10:36:25;;;;;;;;;;;5.00;99.90;;;;;;5093627;28;19920;-75
2022/12/31 10:38:50;;;;;;;;;;;5.00;99.90;;;;;;5093707;28;19912;-75
2022/12/31 10:41:34;;;;;;;;;;;5.10;99.90;;;;;;5093623;28;20469;-74
2022/12/31 10:44:03;;;;;;;;;;;5.10;99.90;;;;;;5075439;28;19994;-74
2022/12/31 10:46:43;;;;;;;;;;;5.20;99.90;;;;;;5093504;28;19958;-74
2022/12/31 10:49:26;;;;;;;;;;;5.30;99.90;;;;;;5093921;28;19935;-74
2022/12/31 10:52:04;;;;;;;;;;;5.40;99.90;;;;;;5093542;28;19908;-74
2022/12/31 10:54:45;;;;;;;;;;;5.40;99.90;;;;;;5075381;28;19912;-74
2022/12/31 10:57:17;;;;;;;;;;;5.50;99.90;;;;;;5093375;28;20015;-74
2022/12/31 10:59:51;;;;;;;;;;;5.50;99.90;;;;;;5093280;28;19958;-74
2022/12/31 11:02:35;;;;;;;;;;;5.50;99.90;;;;;;5093703;28;19908;-75
2022/12/31 11:05:19;;;;;;;;;;;5.50;99.90;;;;;;5076136;28;20267;-74
2022/12/31 11:07:53;;;;;;;;;;;5.50;99.90;;;;;;5075161;28;19930;-75
2022/12/31 11:10:28;;;;;;;;;;;5.50;99.90;;;;;;5093343;28;19912;-74
2022/12/31 11:13:12;;;;;;;;;;;5.40;99.90;;;;;;5095797;28;20289;-74
2022/12/31 11:15:38;;;;;;;;;;;5.40;99.90;;;;;;5096928;28;19997;-75
2022/12/31 11:18:26;;;;;;;;;;;5.40;99.90;;;;;;5078717;28;19912;-75
2022/12/31 11:20:59;;;;;;;;;;;5.30;99.90;;;;;;5096577;28;20433;-75
2022/12/31 11:23:24;;;;;;;;;;;5.40;99.90;;;;;;5096837;28;19912;-75
2022/12/31 11:25:56;;;;;;;;;;;5.40;99.90;;;;;;5078621;28;20295;-75
2022/12/31 11:28:32;;;;;;;;;;;5.40;99.90;;;;;;5096774;28;19952;-73
2022/12/31 11:31:01;;;;;;;;;;;5.40;99.90;;;;;;5097005;28;19908;-75
2022/12/31 11:33:42;;;;;;;;;;;5.40;99.90;;;;;;5096641;28;19908;-74
2022/12/31 11:36:12;;;;;;;;;;;5.40;99.90;;;;;;5096330;28;19916;-74
2022/12/31 11:38:41;;;;;;;;;;;5.40;99.90;;;;;;5093557;28;19912;-75
2022/12/31 11:41:12;;;;;;;;;;;5.50;99.90;;;;;;5096786;28;19912;-75
2022/12/31 11:43:58;;;;;;;;;;;5.50;99.90;;;;;;5096474;28;19908;-74
2022/12/31 11:46:31;;;;;;;;;;;5.50;99.90;;;;;;5074311;28;20318;-74
2022/12/31 11:49:03;;;;;;;;;;;5.50;99.90;;;;;;5096894;28;19931;-74
2022/12/31 11:51:31;;;;;;;;;;;5.50;99.90;;;;;;5095826;28;20342;-75
2022/12/31 11:53:57;;;;;;;;;;;5.50;99.90;;;;;;5096274;28;19912;-74
2022/12/31 11:56:24;;;;;;;;;;;5.50;99.90;;;;;;5077980;28;19919;-75
2022/12/31 11:58:51;;;;;;;;;;;5.50;99.90;;;;;;5096743;28;19912;-75
2022/12/31 12:01:17;;;;;;;;;;;5.60;99.90;;;;;;5096145;28;19908;-74
2022/12/31 12:03:43;;;;;;;;;;;5.60;99.90;;;;;;5077946;28;19914;-74
2022/12/31 12:06:12;;;;;;;;;;;5.70;99.90;;;;;;5095973;28;19908;-74
2022/12/31 12:08:39;;;;;;;;;;;5.70;99.90;;;;;;5096302;28;19939;-74
2022/12/31 12:11:06;;;;;;;;;;;5.80;99.90;;;;;;5096249;28;19918;-74
2022/12/31 12:13:32;;;;;;;;;;;5.80;99.90;;;;;;5095885;28;19908;-74
2022/12/31 12:16:02;;;;;;;;;;;5.80;99.90;;;;;;5095748;28;19920;-74
2022/12/31 12:18:29;;;;;;;;;;;5.90;99.90;;;;;;5095817;28;19909;-74
2022/12/31 12:21:21;;;;;;;;;;;5.80;99.90;;;;;;5095781;28;19995;-74
2022/12/31 12:24:12;;;;;;;;;;;5.80;99.90;;;;;;5087304;28;20003;-74
2022/12/31 12:26:46;;;;;;;;;;;5.80;99.90;;;;;;5089680;28;20001;-75
2022/12/31 12:29:28;;;;;;;;;;;5.90;99.90;;;;;;5077486;28;19908;-74
2022/12/31 12:31:54;;;;;;;;;;;5.90;99.90;;;;;;5095528;28;19908;-74
2022/12/31 12:34:24;;;;;;;;;;;5.90;99.90;;;;;;5077375;28;20295;-74
2022/12/31 12:36:49;;;;;;;;;;;5.90;99.90;;;;;;5077017;28;19927;-74
2022/12/31 12:39:21;;;;;;;;;;;5.90;99.90;;;;;;5095387;28;20364;-74
2022/12/31 12:41:46;;;;;;;;;;;5.90;99.90;;;;;;5095630;28;19908;-74
2022/12/31 12:44:15;;;;;;;;;;;5.90;99.90;;;;;;5095289;28;19914;-74
2022/12/31 12:46:45;;;;;;;;;;;6.00;99.90;;;;;;5095132;28;19935;-74
2022/12/31 12:49:25;;;;;;;;;;;6.00;99.90;;;;;;5095512;28;20003;-74
2022/12/31 12:51:53;;;;;;;;;;;6.00;99.90;;;;;;5095032;28;19912;-74
2022/12/31 12:54:21;;;;;;;;;;;6.00;99.90;;;;;;5095130;28;19957;-74
2022/12/31 12:56:50;;;;;;;;;;;6.00;99.90;;;;;;5076785;28;19912;-74
2022/12/31 12:59:35;;;;;;;;;;;6.00;99.90;;;;;;5076899;28;19908;-74
2022/12/31 13:02:27;;;;;;;;;;;6.10;99.90;;;;;;5095286;28;20286;-74
2022/12/31 13:05:02;;;;;;;;;;;6.10;99.90;;;;;;5077127;28;20268;-74
2022/12/31 13:07:27;;;;;;;;;;;6.10;99.90;;;;;;5094784;28;20269;-73
2022/12/31 13:10:11;;;;;;;;;;;6.10;99.90;;;;;;5094781;28;19914;-74
2022/12/31 13:12:36;;;;;;;;;;;6.20;99.90;;;;;;5094759;28;19908;-74
2022/12/31 13:15:14;;;;;;;;;;;6.20;99.90;;;;;;5094676;28;20325;-73
2022/12/31 13:18:04;;;;;;;;;;;6.20;99.90;;;;;;5094596;28;19912;-74
2022/12/31 13:20:42;;;;;;;;;;;6.20;99.90;;;;;;5040128;28;19912;-74
2022/12/31 13:23:10;;;;;;;;;;;6.30;99.90;;;;;;5094589;28;19909;-74
2022/12/31 13:25:52;;;;;;;;;;;6.30;99.90;;;;;;5094553;28;19908;-74
2022/12/31 13:28:18;;;;;;;;;;;6.30;99.90;;;;;;5094528;28;19915;-74
2022/12/31 13:30:54;;;;;;;;;;;6.40;99.90;;;;;;5094708;28;19912;-74
2022/12/31 13:33:35;;;;;;;;;;;6.40;99.90;;;;;;5094340;28;20290;-74
2022/12/31 13:36:00;;;;;;;;;;;6.40;99.90;;;;;;5090502;28;19924;-74
2022/12/31 13:38:44;;;;;;;;;;;6.50;99.90;;;;;;5095191;28;20375;-74
2022/12/31 13:41:10;;;;;;;;;;;6.50;99.90;;;;;;5094531;28;19981;-74
2022/12/31 13:43:42;;;;;;;;;;;6.50;99.90;;;;;;5075860;28;19912;-74
2022/12/31 13:46:40;;;;;;;;;;;6.60;99.90;;;;;;5094159;28;19912;-74
2022/12/31 13:49:32;;;;;;;;;;;6.60;99.90;;;;;;5038360;28;19908;-74
2022/12/31 13:52:00;;;;;;;;;;;6.60;99.90;;;;;;5088985;28;19998;-74
2022/12/31 13:54:26;;;;;;;;;;;6.60;99.90;;;;;;5094393;28;20249;-74
2022/12/31 13:56:52;;;;;;;;;;;6.60;99.90;;;;;;5093364;28;19962;-74
2022/12/31 13:59:20;;;;;;;;;;;6.60;99.90;;;;;;5094001;28;19912;-74
2022/12/31 14:01:53;;;;;;;;;;;6.60;99.90;;;;;;5094249;28;19998;-74
2022/12/31 14:04:37;;;;;;;;;;;6.70;99.90;;;;;;5094231;28;19995;-74
2022/12/31 14:07:11;;;;;;;;;;;6.60;99.90;;;;;;5093959;28;20343;-74
2022/12/31 14:09:36;;;;;;;;;;;6.70;99.90;;;;;;5093868;28;19914;-74
2022/12/31 14:12:17;;;;;;;;;;;6.70;99.90;;;;;;5094214;28;20006;-74
2022/12/31 14:14:58;;;;;;;;;;;6.60;99.90;;;;;;5092408;28;19959;-74
2022/12/31 14:17:32;;;;;;;;;;;6.60;99.90;;;;;;5093431;28;20003;-74
2022/12/31 14:20:01;;;;;;;;;;;6.60;99.90;;;;;;5093646;28;19943;-74
2022/12/31 14:22:44;;;;;;;;;;;6.50;99.90;;;;;;5092730;28;19909;-74
2022/12/31 14:25:25;;;;;;;;;;;6.50;99.90;;;;;;5093594;28;19912;-74
2022/12/31 14:27:52;;;;;;;;;;;6.50;99.90;;;;;;5093343;28;19912;-74
2022/12/31 14:30:22;;;;;;;;;;;6.40;99.90;;;;;;5092389;28;20003;-74
2022/12/31 14:32:56;;;;;;;;;;;6.40;99.90;;;;;;5075151;28;19955;-74
2022/12/31 14:35:33;;;;;;;;;;;6.40;99.90;;;;;;5093355;28;19908;-74
2022/12/31 14:38:02;;;;;;;;;;;6.40;99.90;;;;;;5093233;28;19948;-74
2022/12/31 14:40:42;;;;;;;;;;;6.30;99.90;;;;;;5091600;28;19919;-74
2022/12/31 14:43:17;;;;;;;;;;;6.30;99.90;;;;;;5072396;28;19916;-74
2022/12/31 14:45:42;;;;;;;;;;;6.30;99.90;;;;;;5092920;28;19914;-74
2022/12/31 14:48:11;;;;;;;;;;;6.20;99.90;;;;;;5094642;28;19998;-74
2022/12/31 14:50:37;;;;;;;;;;;6.20;99.90;;;;;;5090794;28;20269;-74
2022/12/31 14:53:02;;;;;;;;;;;6.10;99.90;;;;;;5078072;28;19912;-74
2022/12/31 14:55:29;;;;;;;;;;;6.00;99.90;;;;;;5078989;28;19966;-74
2022/12/31 14:57:56;;;;;;;;;;;6.00;99.90;;;;;;5077871;28;19959;-74